Time;durP1;ratioP1;P1;durP2;ratioP2;P2;SDS_P1;SDS_P2;PMS_P1;PMS_P2;Temp;Humidity;BMP_temperature;BMP_pressure;BME280_temperature;BME280_humidity;BME280_pressure;Samples;Min_cycle;Max_cycle;Signal;HPM_P1;HPM_P2
2023/03/02 00:01:19;;;;;;;24.77;13.23;;;0.80;99.90;;;;;;5072983;28;20860;-70
2023/03/02 00:03:45;;;;;;;23.43;11.67;;;0.80;99.90;;;;;;5075474;28;20466;-70
2023/03/02 00:06:12;;;;;;;27.77;12.90;;;0.80;99.90;;;;;;5070287;28;20481;-69
2023/03/02 00:08:39;;;;;;;26.20;13.00;;;0.80;99.90;;;;;;5070827;28;20960;-69
2023/03/02 00:11:07;;;;;;;27.00;13.50;;;0.90;99.90;;;;;;5081571;28;20455;-69
2023/03/02 00:13:36;;;;;;;33.53;12.63;;;0.80;99.90;;;;;;5070883;28;20476;-69
2023/03/02 00:16:03;;;;;;;25.00;11.50;;;0.80;99.90;;;;;;5073881;28;20448;-69
2023/03/02 00:18:30;;;;;;;23.50;12.13;;;0.80;99.90;;;;;;5079029;28;20451;-69
2023/03/02 00:20:57;;;;;;;26.03;11.77;;;0.80;99.90;;;;;;5077396;28;20448;-69
2023/03/02 00:23:24;;;;;;;25.53;13.20;;;0.70;99.90;;;;;;5074313;28;20467;-69
2023/03/02 00:25:50;;;;;;;23.27;11.97;;;0.70;99.90;;;;;;5087675;28;20478;-69
2023/03/02 00:28:18;;;;;;;27.87;12.50;;;0.70;99.90;;;;;;5074335;28;20447;-69
2023/03/02 00:30:45;;;;;;;22.10;11.53;;;0.70;99.90;;;;;;5085796;28;20504;-69
2023/03/02 00:33:12;;;;;;;26.77;12.30;;;0.70;99.90;;;;;;5084025;28;20905;-69
2023/03/02 00:35:39;;;;;;;25.70;12.63;;;0.60;99.90;;;;;;5074048;28;20497;-69
2023/03/02 00:38:07;;;;;;;24.50;11.63;;;0.70;99.90;;;;;;5082103;28;20460;-69
2023/03/02 00:40:33;;;;;;;21.67;11.20;;;0.60;99.90;;;;;;5074077;28;20444;-70
2023/03/02 00:43:00;;;;;;;23.53;11.73;;;0.60;99.90;;;;;;5073717;28;20530;-69
2023/03/02 00:45:28;;;;;;;22.23;10.60;;;0.60;99.90;;;;;;5073463;28;20497;-69
2023/03/02 00:47:55;;;;;;;28.20;11.17;;;0.60;99.90;;;;;;5073701;28;21200;-69
2023/03/02 00:50:21;;;;;;;23.23;10.60;;;0.60;99.90;;;;;;5073527;28;20453;-69
2023/03/02 00:52:48;;;;;;;21.13;10.80;;;0.60;99.90;;;;;;5090301;28;20494;-69
2023/03/02 00:55:15;;;;;;;21.70;10.90;;;0.60;99.90;;;;;;5075807;28;20452;-69
2023/03/02 00:57:41;;;;;;;25.03;11.70;;;0.60;99.90;;;;;;5073583;28;20805;-69
2023/03/02 01:00:09;;;;;;;18.80;10.33;;;0.60;99.90;;;;;;5073214;28;20456;-69
2023/03/02 01:02:42;;;;;;;27.43;10.57;;;0.60;99.90;;;;;;5081380;28;20936;-69
2023/03/02 01:05:09;;;;;;;20.00;10.67;;;0.60;99.90;;;;;;5081632;28;20455;-69
2023/03/02 01:07:36;;;;;;;23.90;11.00;;;0.60;99.90;;;;;;5076371;28;20488;-69
2023/03/02 01:10:03;;;;;;;26.80;12.00;;;0.60;99.90;;;;;;5074309;28;20460;-69
2023/03/02 01:12:30;;;;;;;23.50;11.20;;;0.60;99.90;;;;;;5073279;28;20452;-69
2023/03/02 01:14:57;;;;;;;21.50;10.87;;;0.60;99.90;;;;;;5073459;28;20510;-69
2023/03/02 01:17:24;;;;;;;18.53;11.10;;;0.60;99.90;;;;;;5075700;28;20526;-69
2023/03/02 01:19:53;;;;;;;21.73;10.10;;;0.60;99.90;;;;;;5078078;28;20509;-69
2023/03/02 01:22:20;;;;;;;21.97;11.47;;;0.50;99.90;;;;;;5072867;28;20877;-69
2023/03/02 01:24:47;;;;;;;19.67;10.40;;;0.60;99.90;;;;;;5072907;28;20969;-70
2023/03/02 01:27:14;;;;;;;23.53;11.50;;;0.50;99.90;;;;;;5072153;28;20519;-69
2023/03/02 01:29:40;;;;;;;18.53;10.40;;;0.50;99.90;;;;;;5072967;28;20440;-69
2023/03/02 01:32:07;;;;;;;21.83;11.20;;;0.60;99.90;;;;;;5072782;28;20497;-69
2023/03/02 01:34:34;;;;;;;20.70;10.40;;;0.50;99.90;;;;;;5074580;28;20467;-69
2023/03/02 01:37:02;;;;;;;22.47;11.93;;;0.50;99.90;;;;;;5072830;28;20874;-69
2023/03/02 01:39:29;;;;;;;22.30;10.83;;;0.50;99.90;;;;;;5072487;28;20951;-70
2023/03/02 01:41:55;;;;;;;21.10;11.47;;;0.50;99.90;;;;;;5072948;28;20502;-69
2023/03/02 01:44:43;;;;;;;25.13;11.40;;;0.40;99.90;;;;;;5078629;28;20468;-69
2023/03/02 01:47:17;;;;;;;20.70;11.13;;;0.40;99.90;;;;;;5074366;28;21138;-69
2023/03/02 01:49:48;;;;;;;20.20;11.63;;;0.30;99.90;;;;;;5072343;28;21049;-69
2023/03/02 01:52:17;;;;;;;16.33;9.70;;;0.30;99.90;;;;;;5081351;28;20534;-69
2023/03/02 01:54:48;;;;;;;18.70;10.03;;;0.30;99.90;;;;;;5072497;28;20459;-69
2023/03/02 01:57:19;;;;;;;22.90;10.70;;;0.20;99.90;;;;;;5072220;28;20490;-69
2023/03/02 01:59:47;;;;;;;24.33;10.67;;;0.20;99.90;;;;;;5077104;28;20447;-69
2023/03/02 02:02:14;;;;;;;22.40;10.93;;;0.20;99.90;;;;;;5073612;28;20452;-69
2023/03/02 02:04:44;;;;;;;20.57;11.43;;;0.10;99.90;;;;;;5076196;28;20536;-69
2023/03/02 02:07:11;;;;;;;27.07;11.40;;;0.10;99.90;;;;;;5071814;28;21069;-69
2023/03/02 02:09:43;;;;;;;26.50;11.60;;;0.10;99.90;;;;;;5076510;28;20460;-69
2023/03/02 02:12:14;;;;;;;19.17;10.57;;;0.10;99.90;;;;;;5071915;28;20517;-70
2023/03/02 02:14:41;;;;;;;24.77;11.30;;;0.10;99.90;;;;;;5072186;28;20521;-69
2023/03/02 02:17:09;;;;;;;22.20;12.00;;;0.00;99.90;;;;;;5071834;28;20793;-69
2023/03/02 02:19:47;;;;;;;20.80;11.30;;;-0.10;99.90;;;;;;5072114;28;20456;-69
2023/03/02 02:22:21;;;;;;;24.30;11.13;;;-0.10;99.90;;;;;;5074935;28;20451;-69
2023/03/02 02:24:56;;;;;;;20.10;10.90;;;-0.20;99.90;;;;;;5078135;28;20480;-69
2023/03/02 02:27:32;;;;;;;17.73;10.87;;;-0.30;99.90;;;;;;5072086;28;21760;-69
2023/03/02 02:30:01;;;;;;;20.50;11.30;;;-0.30;99.90;;;;;;5071880;28;20452;-70
2023/03/02 02:32:32;;;;;;;23.87;10.53;;;-0.30;99.90;;;;;;5071693;28;20824;-69
2023/03/02 02:35:04;;;;;;;19.07;9.83;;;-0.30;99.90;;;;;;5071633;28;20432;-69
2023/03/02 02:37:34;;;;;;;19.47;9.77;;;-0.30;99.90;;;;;;5070745;28;20507;-69
2023/03/02 02:40:06;;;;;;;18.80;9.27;;;-0.30;99.90;;;;;;5073035;28;20533;-69
2023/03/02 02:42:37;;;;;;;20.23;9.30;;;-0.40;99.90;;;;;;5071512;28;20562;-69
2023/03/02 02:45:06;;;;;;;17.10;9.27;;;-0.40;99.90;;;;;;5071465;28;20444;-69
2023/03/02 02:47:34;;;;;;;19.43;9.80;;;-0.40;99.90;;;;;;5071105;28;21183;-69
2023/03/02 02:50:00;;;;;;;18.80;10.83;;;-0.40;99.90;;;;;;5071636;28;20451;-69
2023/03/02 02:52:28;;;;;;;25.60;10.40;;;-0.30;99.90;;;;;;5081385;28;20459;-70
2023/03/02 02:54:57;;;;;;;19.60;9.37;;;-0.50;99.90;;;;;;5073653;28;20889;-68
2023/03/02 02:57:27;;;;;;;20.00;9.33;;;-0.50;99.90;;;;;;5072232;28;20456;-68
2023/03/02 02:59:59;;;;;;;18.43;10.00;;;-0.50;99.90;;;;;;5071724;28;20452;-69
2023/03/02 03:02:28;;;;;;;19.67;9.47;;;-0.50;99.90;;;;;;5081251;28;20501;-69
2023/03/02 03:05:02;;;;;;;19.50;9.80;;;-0.50;99.90;;;;;;5071069;28;20452;-69
2023/03/02 03:07:31;;;;;;;15.83;8.93;;;-0.50;99.90;;;;;;5080089;28;20994;-69
2023/03/02 03:10:03;;;;;;;14.93;9.53;;;-0.50;99.90;;;;;;5075065;28;20460;-69
2023/03/02 03:12:33;;;;;;;19.83;9.40;;;-0.50;99.90;;;;;;5071429;28;20448;-69
2023/03/02 03:15:02;;;;;;;20.90;10.80;;;-0.60;99.90;;;;;;5071252;28;20456;-69
2023/03/02 03:17:29;;;;;;;16.83;9.63;;;-0.60;99.90;;;;;;5071029;28;20448;-68
2023/03/02 03:20:02;;;;;;;19.53;10.37;;;-0.70;99.90;;;;;;5075290;28;20452;-70
2023/03/02 03:22:32;;;;;;;18.83;9.70;;;-0.70;99.90;;;;;;5070887;28;20539;-69
2023/03/02 03:24:59;;;;;;;18.20;9.83;;;-0.70;99.90;;;;;;5072523;28;20514;-69
2023/03/02 03:27:25;;;;;;;22.40;10.30;;;-0.80;99.90;;;;;;5071151;28;20561;-69
2023/03/02 03:29:52;;;;;;;21.97;10.17;;;-0.80;99.90;;;;;;5070691;28;20944;-71
2023/03/02 03:32:20;;;;;;;21.33;10.37;;;-0.80;99.90;;;;;;5071477;28;20797;-69
2023/03/02 03:34:47;;;;;;;24.97;10.93;;;-0.80;99.90;;;;;;5070822;28;20513;-69
2023/03/02 03:37:17;;;;;;;17.80;10.63;;;-0.80;99.90;;;;;;5070755;28;21008;-69
2023/03/02 03:39:44;;;;;;;17.37;9.27;;;-0.80;99.90;;;;;;5070756;28;20509;-69
2023/03/02 03:42:10;;;;;;;17.17;9.40;;;-0.80;99.90;;;;;;5070729;28;20897;-69
2023/03/02 03:44:37;;;;;;;20.33;9.67;;;-0.80;99.90;;;;;;5074477;28;20475;-69
2023/03/02 03:47:04;;;;;;;23.47;10.80;;;-0.80;99.90;;;;;;5070847;28;20491;-69
2023/03/02 03:49:32;;;;;;;22.57;11.23;;;-0.80;99.90;;;;;;5072132;28;21022;-69
2023/03/02 03:51:59;;;;;;;20.57;10.07;;;-0.80;99.90;;;;;;5085469;28;20948;-69
2023/03/02 03:54:26;;;;;;;19.50;10.80;;;-0.80;99.90;;;;;;5074492;28;20471;-69
2023/03/02 03:56:52;;;;;;;18.87;10.30;;;-0.80;99.90;;;;;;5083124;28;20447;-69
2023/03/02 03:59:21;;;;;;;21.03;10.40;;;-0.80;99.90;;;;;;5077713;28;20937;-69
2023/03/02 04:01:50;;;;;;;22.37;10.37;;;-0.80;99.90;;;;;;5083386;28;20451;-69
2023/03/02 04:04:20;;;;;;;18.63;10.10;;;-0.80;99.90;;;;;;5074015;28;20541;-69
2023/03/02 04:06:48;;;;;;;20.20;9.80;;;-0.80;99.90;;;;;;5074553;28;20529;-69
2023/03/02 04:09:17;;;;;;;22.47;10.20;;;-0.80;99.90;;;;;;5074107;28;20494;-69
2023/03/02 04:11:46;;;;;;;20.87;10.50;;;-0.80;99.90;;;;;;5074062;28;20452;-70
2023/03/02 04:14:14;;;;;;;21.50;10.00;;;-0.70;99.90;;;;;;5073865;28;20979;-68
2023/03/02 04:16:42;;;;;;;21.47;11.27;;;-0.70;99.90;;;;;;5078403;28;20934;-69
2023/03/02 04:19:10;;;;;;;20.10;10.40;;;-0.70;99.90;;;;;;5077343;28;20451;-69
2023/03/02 04:21:38;;;;;;;18.17;10.60;;;-0.70;99.90;;;;;;5074211;28;20861;-69
2023/03/02 04:24:06;;;;;;;19.57;9.50;;;-0.70;99.90;;;;;;5076445;28;20471;-69
2023/03/02 04:26:33;;;;;;;19.53;10.53;;;-0.70;99.90;;;;;;5074404;28;20452;-69
2023/03/02 04:28:59;;;;;;;20.30;10.67;;;-0.70;99.90;;;;;;5074141;28;20447;-69
2023/03/02 04:31:26;;;;;;;21.10;10.33;;;-0.70;99.90;;;;;;5075177;28;20455;-69
2023/03/02 04:33:53;;;;;;;18.30;10.10;;;-0.70;99.90;;;;;;5082489;28;20529;-69
2023/03/02 04:36:19;;;;;;;19.23;10.80;;;-0.80;99.90;;;;;;5073651;28;20871;-69
2023/03/02 04:38:47;;;;;;;17.23;10.53;;;-0.80;99.90;;;;;;5073692;28;20451;-69
2023/03/02 04:41:15;;;;;;;24.07;10.80;;;-0.80;99.90;;;;;;5073839;28;20456;-68
2023/03/02 04:43:42;;;;;;;25.93;11.97;;;-0.80;99.90;;;;;;5073904;28;20468;-69
2023/03/02 04:46:14;;;;;;;19.60;10.20;;;-0.80;99.90;;;;;;5073841;28;20580;-68
2023/03/02 04:48:40;;;;;;;21.47;10.57;;;-0.80;99.90;;;;;;5073783;28;20514;-68
2023/03/02 04:51:09;;;;;;;20.37;10.53;;;-0.90;99.90;;;;;;5084474;28;20446;-70
2023/03/02 04:53:36;;;;;;;17.90;9.37;;;-0.90;99.90;;;;;;5073406;28;20967;-69
2023/03/02 04:56:03;;;;;;;19.57;9.53;;;-0.80;99.90;;;;;;5078483;28;20513;-68
2023/03/02 04:58:31;;;;;;;17.73;9.80;;;-0.80;99.90;;;;;;5073392;28;21674;-69
2023/03/02 05:01:01;;;;;;;19.70;10.83;;;-0.80;99.90;;;;;;5072324;28;20448;-69
2023/03/02 05:03:27;;;;;;;18.47;9.83;;;-0.80;99.90;;;;;;5073216;28;20559;-69
2023/03/02 05:05:54;;;;;;;17.00;9.57;;;-0.80;99.90;;;;;;5074868;28;20509;-69
2023/03/02 05:08:20;;;;;;;20.03;10.30;;;-0.80;99.90;;;;;;5079107;28;20480;-68
2023/03/02 05:10:47;;;;;;;22.80;10.80;;;-0.80;99.90;;;;;;5075603;28;20456;-69
2023/03/02 05:13:14;;;;;;;20.80;10.20;;;-0.70;99.90;;;;;;5073069;28;20479;-69
2023/03/02 05:15:42;;;;;;;22.50;11.33;;;-0.70;99.90;;;;;;5073059;28;20923;-69
2023/03/02 05:18:11;;;;;;;22.87;10.90;;;-0.60;99.90;;;;;;5073190;28;20506;-69
2023/03/02 05:20:38;;;;;;;23.90;11.23;;;-0.80;99.90;;;;;;5073062;28;20443;-68
2023/03/02 05:23:15;;;;;;;19.50;10.13;;;-0.80;99.90;;;;;;5078160;28;20467;-68
2023/03/02 05:25:42;;;;;;;20.13;10.67;;;-0.80;99.90;;;;;;5073515;28;20452;-68
2023/03/02 05:28:09;;;;;;;23.73;10.50;;;-0.80;99.90;;;;;;5073043;28;21049;-69
2023/03/02 05:30:36;;;;;;;18.20;10.47;;;-0.80;99.90;;;;;;5079252;28;20506;-69
2023/03/02 05:33:04;;;;;;;17.53;9.40;;;-0.80;99.90;;;;;;5072804;28;20899;-69
2023/03/02 05:35:30;;;;;;;21.33;10.60;;;-0.80;99.90;;;;;;5075947;28;20460;-69
2023/03/02 05:37:57;;;;;;;18.37;10.07;;;-0.80;99.90;;;;;;5086560;28;20448;-69
2023/03/02 05:40:24;;;;;;;17.90;9.10;;;-0.80;99.90;;;;;;5075500;28;20509;-69
2023/03/02 05:42:50;;;;;;;20.53;10.20;;;-0.80;99.90;;;;;;5072384;28;20545;-70
2023/03/02 05:45:21;;;;;;;20.63;11.20;;;-0.70;99.90;;;;;;5080671;28;21012;-69
2023/03/02 05:47:48;;;;;;;24.50;10.20;;;-0.70;99.90;;;;;;5072436;28;21061;-70
2023/03/02 05:50:16;;;;;;;23.80;10.77;;;-0.70;99.90;;;;;;5072388;28;20451;-69
2023/03/02 05:52:44;;;;;;;16.90;9.60;;;-0.80;99.90;;;;;;5092379;28;20455;-69
2023/03/02 05:55:10;;;;;;;19.63;9.33;;;-0.70;99.90;;;;;;5075644;28;20443;-69
2023/03/02 05:57:37;;;;;;;24.10;10.13;;;-0.70;99.90;;;;;;5078338;28;20492;-69
2023/03/02 06:00:06;;;;;;;16.73;9.60;;;-0.80;99.90;;;;;;5080115;28;20486;-69
2023/03/02 06:02:32;;;;;;;22.13;10.50;;;-0.70;99.90;;;;;;5074475;28;20447;-69
2023/03/02 06:04:59;;;;;;;17.10;10.23;;;-0.70;99.90;;;;;;5072435;28;20517;-69
2023/03/02 06:07:28;;;;;;;23.73;10.30;;;-0.70;99.90;;;;;;5071960;28;20483;-69
2023/03/02 06:09:56;;;;;;;22.43;11.17;;;-0.70;99.90;;;;;;5071261;28;20456;-69
2023/03/02 06:12:22;;;;;;;27.57;11.57;;;-0.70;99.90;;;;;;5076844;28;20460;-69
2023/03/02 06:14:49;;;;;;;22.60;10.47;;;-0.70;99.90;;;;;;5076833;28;20987;-69
2023/03/02 06:17:15;;;;;;;25.80;10.60;;;-0.70;99.90;;;;;;5071722;28;20448;-69
2023/03/02 06:19:42;;;;;;;18.67;10.70;;;-0.70;99.90;;;;;;5071816;28;20501;-70
2023/03/02 06:22:09;;;;;;;25.70;10.83;;;-0.70;99.90;;;;;;5075288;28;20459;-71
2023/03/02 06:24:37;;;;;;;21.80;11.70;;;-0.60;99.90;;;;;;5078142;28;20904;-71
2023/03/02 06:27:03;;;;;;;18.10;9.83;;;-0.60;99.90;;;;;;5071862;28;20452;-72
2023/03/02 06:29:30;;;;;;;21.50;11.20;;;-0.50;99.90;;;;;;5071538;28;20448;-72
2023/03/02 06:31:57;;;;;;;22.43;11.43;;;-0.40;99.90;;;;;;5074413;28;20513;-73
2023/03/02 06:34:23;;;;;;;20.83;10.33;;;-0.30;99.90;;;;;;5077694;28;20986;-73
2023/03/02 06:36:50;;;;;;;23.50;10.40;;;-0.10;99.90;;;;;;5071401;28;20452;-72
2023/03/02 06:39:17;;;;;;;19.10;10.07;;;0.20;99.90;;;;;;5070387;28;21002;-73
2023/03/02 06:41:46;;;;;;;19.17;10.70;;;0.40;99.90;;;;;;5071353;28;20455;-73
2023/03/02 06:44:13;;;;;;;19.23;9.60;;;0.80;99.90;;;;;;5079559;28;20463;-72
2023/03/02 06:46:41;;;;;;;26.10;10.77;;;1.10;99.90;;;;;;5073423;28;20451;-73
2023/03/02 06:49:09;;;;;;;18.20;10.20;;;1.50;99.90;;;;;;5071293;28;20867;-72
2023/03/02 06:51:37;;;;;;;23.17;10.87;;;2.00;99.90;;;;;;5085797;28;20518;-73
2023/03/02 06:54:05;;;;;;;21.73;10.03;;;2.40;99.90;;;;;;5071300;28;21074;-73
2023/03/02 06:56:32;;;;;;;19.40;10.33;;;2.80;99.90;;;;;;5075733;28;20459;-73
2023/03/02 06:59:00;;;;;;;21.97;10.10;;;3.30;99.90;;;;;;5078664;28;20513;-72
2023/03/02 07:01:31;;;;;;;19.67;10.13;;;3.80;99.90;;;;;;5081586;28;20452;-72
2023/03/02 07:03:58;;;;;;;24.30;10.67;;;4.10;99.90;;;;;;5078832;28;21025;-72
2023/03/02 07:06:24;;;;;;;17.03;9.77;;;4.30;99.90;;;;;;5080214;28;20442;-73
2023/03/02 07:08:51;;;;;;;19.90;10.27;;;4.70;99.90;;;;;;5080959;28;20496;-72
2023/03/02 07:11:18;;;;;;;19.00;10.13;;;5.00;99.90;;;;;;5079755;28;20497;-72
2023/03/02 07:13:44;;;;;;;17.10;9.57;;;5.30;99.90;;;;;;5078623;28;20464;-72
2023/03/02 07:16:14;;;;;;;17.73;10.13;;;5.70;99.90;;;;;;5082240;28;20452;-73
2023/03/02 07:18:41;;;;;;;20.77;10.90;;;6.00;99.90;;;;;;5081490;28;20436;-72
2023/03/02 07:21:08;;;;;;;19.60;10.30;;;6.30;99.90;;;;;;5077973;28;20512;-72
2023/03/02 07:23:34;;;;;;;22.13;10.83;;;6.50;99.90;;;;;;5075424;28;20471;-74
2023/03/02 07:26:01;;;;;;;16.83;9.97;;;6.90;99.90;;;;;;5084898;28;21008;-73
2023/03/02 07:28:28;;;;;;;18.50;10.00;;;7.20;99.90;;;;;;5075193;28;21000;-74
2023/03/02 07:30:54;;;;;;;18.50;9.70;;;7.50;99.90;;;;;;5079163;28;20452;-74
2023/03/02 07:33:22;;;;;;;21.57;10.90;;;7.80;99.90;;;;;;5074637;28;20883;-75
2023/03/02 07:35:49;;;;;;;18.77;10.00;;;7.90;99.90;;;;;;5078999;28;21014;-74
2023/03/02 07:38:16;;;;;;;17.23;10.80;;;8.10;99.90;;;;;;5074821;28;20459;-74
2023/03/02 07:40:43;;;;;;;19.07;10.80;;;8.30;99.90;;;;;;5078839;28;21039;-74
2023/03/02 07:43:10;;;;;;;20.00;10.43;;;8.60;99.90;;;;;;5076209;28;20498;-74
2023/03/02 07:45:37;;;;;;;17.20;10.53;;;8.90;99.90;;;;;;5079655;28;20451;-74
2023/03/02 07:48:05;;;;;;;18.97;10.00;;;9.20;99.90;;;;;;5074534;28;20534;-74
2023/03/02 07:50:33;;;;;;;20.40;11.60;;;9.40;99.90;;;;;;5075322;28;21120;-74
2023/03/02 07:53:00;;;;;;;21.30;11.17;;;9.60;99.90;;;;;;5091589;28;20487;-73
2023/03/02 07:55:27;;;;;;;18.13;10.80;;;9.80;99.90;;;;;;5080418;28;20822;-73
2023/03/02 07:57:54;;;;;;;23.53;11.37;;;10.10;99.90;;;;;;5079930;28;20589;-75
2023/03/02 08:00:21;;;;;;;18.67;11.13;;;10.00;99.90;;;;;;5077028;28;20469;-74
2023/03/02 08:02:48;;;;;;;21.20;10.70;;;9.90;99.90;;;;;;5075735;28;20503;-75
2023/03/02 08:05:15;;;;;;;23.50;12.10;;;9.80;99.90;;;;;;5082860;28;20455;-74
2023/03/02 08:07:45;;;;;;;19.90;11.20;;;9.70;99.90;;;;;;5074475;28;21015;-75
2023/03/02 08:10:12;;;;;;;20.07;11.00;;;9.40;99.90;;;;;;5073864;28;20460;-75
2023/03/02 08:12:38;;;;;;;23.33;11.27;;;9.20;99.90;;;;;;5074016;28;20822;-75
2023/03/02 08:15:07;;;;;;;21.20;12.40;;;9.10;99.90;;;;;;5074356;28;20452;-75
2023/03/02 08:17:33;;;;;;;18.93;10.80;;;9.00;99.90;;;;;;5074886;28;20501;-75
2023/03/02 08:20:00;;;;;;;18.00;11.53;;;8.80;99.90;;;;;;5073906;28;20452;-75
2023/03/02 08:22:26;;;;;;;19.33;11.13;;;8.80;99.90;;;;;;5081302;28;20505;-75
2023/03/02 08:24:54;;;;;;;19.00;10.83;;;8.70;99.90;;;;;;5075028;28;20471;-74
2023/03/02 08:27:21;;;;;;;24.33;11.93;;;8.60;99.90;;;;;;5074154;28;20458;-75
2023/03/02 08:29:48;;;;;;;21.60;12.00;;;8.70;99.90;;;;;;5073908;28;20487;-75
2023/03/02 08:32:14;;;;;;;18.50;11.10;;;8.80;99.90;;;;;;5079638;28;20511;-75
2023/03/02 08:34:41;;;;;;;21.73;11.23;;;8.80;99.90;;;;;;5073640;28;21043;-75
2023/03/02 08:37:08;;;;;;;18.50;11.03;;;9.00;99.90;;;;;;5074308;28;20484;-74
2023/03/02 08:39:35;;;;;;;22.00;11.20;;;8.90;99.90;;;;;;5082359;28;20456;-75
2023/03/02 08:42:03;;;;;;;22.60;12.17;;;9.00;99.90;;;;;;5076286;28;20515;-75
2023/03/02 08:44:30;;;;;;;21.90;11.93;;;9.00;99.90;;;;;;5074703;28;20480;-75
2023/03/02 08:46:57;;;;;;;26.13;12.50;;;9.10;99.90;;;;;;5075882;28;20516;-75
2023/03/02 08:49:23;;;;;;;21.57;12.03;;;9.30;99.90;;;;;;5077177;28;20488;-74
2023/03/02 08:51:52;;;;;;;20.00;11.70;;;9.30;99.90;;;;;;5078707;28;20517;-75
2023/03/02 08:54:20;;;;;;;24.07;12.30;;;9.20;99.90;;;;;;5073487;28;20559;-75
2023/03/02 08:56:47;;;;;;;23.83;12.37;;;9.50;99.90;;;;;;5078947;28;20843;-75
2023/03/02 08:59:16;;;;;;;22.77;12.03;;;9.20;99.90;;;;;;5084091;28;20448;-75
2023/03/02 09:01:43;;;;;;;26.30;11.80;;;9.00;99.90;;;;;;5082279;28;20457;-75
2023/03/02 09:04:10;;;;;;;26.47;13.07;;;9.20;99.90;;;;;;5075427;28;20474;-75
2023/03/02 09:06:39;;;;;;;20.57;11.63;;;9.50;99.90;;;;;;5073829;28;20445;-75
2023/03/02 09:09:08;;;;;;;23.77;12.20;;;9.20;99.90;;;;;;5075426;28;20490;-75
2023/03/02 09:11:34;;;;;;;22.10;12.60;;;9.30;99.90;;;;;;5074858;28;20499;-74
2023/03/02 09:14:01;;;;;;;20.60;12.20;;;9.40;99.90;;;;;;5075176;28;21015;-75
2023/03/02 09:16:29;;;;;;;22.50;12.70;;;9.80;99.90;;;;;;5083217;28;20465;-75
2023/03/02 09:18:56;;;;;;;22.60;12.30;;;9.70;99.90;;;;;;5077131;28;20445;-74
2023/03/02 09:21:23;;;;;;;22.23;12.77;;;9.50;99.90;;;;;;5080982;28;20530;-75
2023/03/02 09:23:52;;;;;;;18.63;11.30;;;9.30;99.90;;;;;;5072836;28;20962;-75
2023/03/02 09:26:19;;;;;;;23.10;13.43;;;9.40;99.90;;;;;;5073183;28;20463;-75
2023/03/02 09:28:45;;;;;;;20.13;12.10;;;9.40;99.90;;;;;;5077917;28;20479;-75
2023/03/02 09:31:12;;;;;;;21.53;12.20;;;9.50;99.90;;;;;;5084425;28;20807;-75
2023/03/02 09:33:40;;;;;;;23.30;11.83;;;9.90;99.90;;;;;;5076586;28;20491;-74
2023/03/02 09:36:10;;;;;;;20.20;12.13;;;9.90;99.90;;;;;;5081075;28;20448;-74
2023/03/02 09:38:37;;;;;;;21.13;12.07;;;10.10;99.90;;;;;;5080142;28;20887;-74
2023/03/02 09:41:40;;;;;;;19.63;11.27;;;10.10;99.90;;;;;;5082038;28;20445;-74
2023/03/02 09:44:22;;;;;;;20.17;13.10;;;10.50;99.90;;;;;;5067376;28;20969;-74
2023/03/02 09:46:51;;;;;;;17.77;12.10;;;10.60;99.90;;;;;;5087083;28;20499;-74
2023/03/02 09:49:27;;;;;;;22.43;11.77;;;10.60;99.90;;;;;;5079780;28;20518;-74
2023/03/02 09:52:10;;;;;;;21.77;12.70;;;10.60;99.90;;;;;;5084727;28;20513;-74
2023/03/02 09:54:38;;;;;;;21.03;12.07;;;10.90;99.90;;;;;;5081147;28;20474;-74
2023/03/02 09:57:19;;;;;;;24.50;12.30;;;11.00;99.90;;;;;;5082201;28;20449;-74
2023/03/02 09:59:51;;;;;;;18.87;12.07;;;11.30;99.90;;;;;;5072363;28;20442;-74
2023/03/02 10:02:25;;;;;;;24.60;12.13;;;11.40;99.90;;;;;;5075048;28;20506;-74
2023/03/02 10:04:55;;;;;;;21.10;12.53;;;11.40;99.90;;;;;;5074296;28;20471;-75
2023/03/02 10:07:26;;;;;;;19.63;12.20;;;11.50;99.90;;;;;;5075413;28;20452;-74
2023/03/02 10:09:53;;;;;;;16.93;10.80;;;11.70;99.90;;;;;;5070773;28;20480;-74
2023/03/02 10:12:43;;;;;;;20.17;12.37;;;11.50;99.90;;;;;;5071801;28;20544;-73
2023/03/02 10:15:14;;;;;;;20.17;11.60;;;11.30;99.90;;;;;;5071362;28;20766;-73
2023/03/02 10:17:54;;;;;;;18.50;11.10;;;11.10;99.90;;;;;;5070864;28;20452;-74
2023/03/02 10:20:30;;;;;;;23.40;12.60;;;11.30;99.90;;;;;;5073781;28;20445;-74
2023/03/02 10:23:02;;;;;;;20.90;12.13;;;11.30;99.90;;;;;;5074749;28;20508;-73
2023/03/02 10:25:37;;;;;;;16.97;10.63;;;11.40;99.90;;;;;;5079993;28;20450;-74
2023/03/02 10:28:21;;;;;;;19.90;11.00;;;11.60;99.90;;;;;;5071342;28;20447;-74
2023/03/02 10:30:57;;;;;;;18.73;11.50;;;12.10;99.90;;;;;;5083180;28;20502;-74
2023/03/02 10:33:26;;;;;;;22.63;11.60;;;12.30;99.90;;;;;;5071292;28;20477;-74
2023/03/02 10:35:54;;;;;;;19.73;11.43;;;12.20;99.90;;;;;;5070964;28;20896;-74
2023/03/02 10:38:23;;;;;;;21.97;11.30;;;12.20;99.90;;;;;;5071571;28;20559;-74
2023/03/02 10:40:55;;;;;;;22.50;12.00;;;12.30;99.90;;;;;;5071423;28;20460;-74
2023/03/02 10:43:30;;;;;;;16.90;11.37;;;12.70;99.90;;;;;;5070467;28;20523;-73
2023/03/02 10:46:01;;;;;;;23.57;11.30;;;12.80;99.90;;;;;;5077365;28;20452;-72
2023/03/02 10:48:28;;;;;;;19.10;11.80;;;13.00;99.90;;;;;;5079447;28;20926;-74
2023/03/02 10:50:57;;;;;;;25.40;12.27;;;13.10;99.90;;;;;;5083459;28;20449;-74
2023/03/02 10:53:25;;;;;;;21.93;11.67;;;13.30;99.60;;;;;;5071948;28;21062;-74
2023/03/02 10:55:53;;;;;;;21.43;11.40;;;13.60;99.90;;;;;;5070024;28;20452;-74
2023/03/02 10:58:24;;;;;;;17.87;11.80;;;13.70;99.10;;;;;;5071353;28;20456;-74
2023/03/02 11:01:02;;;;;;;20.33;11.90;;;13.90;99.40;;;;;;5070788;28;20459;-74
2023/03/02 11:03:29;;;;;;;21.87;13.10;;;13.60;99.20;;;;;;5071237;28;20475;-74
2023/03/02 11:05:59;;;;;;;19.33;12.00;;;13.50;99.70;;;;;;5079272;28;21004;-74
2023/03/02 11:08:27;;;;;;;23.03;11.80;;;13.20;99.30;;;;;;5069822;28;20474;-74
2023/03/02 11:10:56;;;;;;;19.97;11.70;;;13.30;98.50;;;;;;5070934;28;20445;-74
2023/03/02 11:13:27;;;;;;;19.90;10.67;;;13.20;98.80;;;;;;5071659;28;20482;-73
2023/03/02 11:15:55;;;;;;;19.73;11.00;;;13.20;98.80;;;;;;5071408;28;20901;-74
2023/03/02 11:18:25;;;;;;;17.70;11.13;;;13.10;97.80;;;;;;5070447;28;20584;-74
2023/03/02 11:20:54;;;;;;;20.60;10.80;;;13.20;98.50;;;;;;5070888;28;20491;-74
2023/03/02 11:23:30;;;;;;;17.80;11.60;;;13.30;98.80;;;;;;5079629;28;20467;-74
2023/03/02 11:26:02;;;;;;;18.13;11.60;;;13.20;98.90;;;;;;5077418;28;20463;-74
2023/03/02 11:28:41;;;;;;;19.13;11.10;;;13.50;98.20;;;;;;5071110;28;20941;-74
2023/03/02 11:31:16;;;;;;;17.77;11.27;;;13.60;97.90;;;;;;5074801;28;20505;-74
2023/03/02 11:33:51;;;;;;;24.13;11.20;;;13.80;97.90;;;;;;5072932;28;20476;-74
2023/03/02 11:36:23;;;;;;;18.03;11.23;;;13.90;97.90;;;;;;5076121;28;20509;-74
2023/03/02 11:38:54;;;;;;;27.93;12.73;;;14.00;98.20;;;;;;5070756;28;20456;-74
2023/03/02 11:41:28;;;;;;;17.00;11.37;;;14.20;97.00;;;;;;5071040;28;20881;-73
2023/03/02 11:43:56;;;;;;;18.30;10.77;;;14.30;96.30;;;;;;5071158;28;20516;-74
2023/03/02 11:46:25;;;;;;;18.03;11.33;;;14.30;96.40;;;;;;5078645;28;20448;-74
2023/03/02 11:48:56;;;;;;;22.00;12.17;;;14.40;95.80;;;;;;5070712;28;20500;-74
2023/03/02 11:51:26;;;;;;;18.03;10.90;;;14.30;96.70;;;;;;5071209;28;20452;-74
2023/03/02 11:53:58;;;;;;;17.13;11.30;;;14.20;95.20;;;;;;5074081;28;20471;-74
2023/03/02 11:56:26;;;;;;;17.83;10.17;;;14.00;95.90;;;;;;5076419;28;20529;-74
2023/03/02 11:58:57;;;;;;;15.07;9.63;;;13.80;95.60;;;;;;5070183;28;20895;-74
2023/03/02 12:01:26;;;;;;;18.40;11.57;;;14.10;95.70;;;;;;5082820;28;20452;-74
2023/03/02 12:03:53;;;;;;;14.40;9.23;;;14.30;95.80;;;;;;5070844;28;20480;-74
2023/03/02 12:06:29;;;;;;;21.17;9.80;;;14.30;94.70;;;;;;5079283;28;20855;-74
2023/03/02 12:09:24;;;;;;;17.97;10.07;;;14.30;94.90;;;;;;5081086;28;20477;-74
2023/03/02 12:11:56;;;;;;;13.07;9.50;;;14.60;95.30;;;;;;5081220;28;20460;-74
2023/03/02 12:14:28;;;;;;;19.20;10.93;;;14.90;94.30;;;;;;5074364;28;20525;-74
2023/03/02 12:17:05;;;;;;;15.40;10.87;;;15.10;93.90;;;;;;5073945;28;20444;-74
2023/03/02 12:19:40;;;;;;;24.40;11.90;;;15.10;92.90;;;;;;5073289;28;20455;-74
2023/03/02 12:22:11;;;;;;;16.57;10.33;;;14.60;92.20;;;;;;5074819;28;20456;-74
2023/03/02 12:24:40;;;;;;;18.13;10.13;;;14.80;92.60;;;;;;5074008;28;20573;-74
2023/03/02 12:27:24;;;;;;;14.87;10.20;;;14.80;93.00;;;;;;5079157;28;20448;-74
2023/03/02 12:29:57;;;;;;;15.37;10.60;;;14.70;93.20;;;;;;5073470;28;20484;-74
2023/03/02 12:32:26;;;;;;;18.23;10.23;;;14.50;93.00;;;;;;5080945;28;20482;-74
2023/03/02 12:34:56;;;;;;;16.83;9.60;;;14.70;93.40;;;;;;5073897;28;20995;-73
2023/03/02 12:37:25;;;;;;;22.07;11.00;;;14.80;93.60;;;;;;5073620;28;20952;-74
2023/03/02 12:40:24;;;;;;;17.47;10.43;;;14.60;93.30;;;;;;5074536;28;20884;-74
2023/03/02 12:43:17;;;;;;;15.83;9.80;;;14.70;94.30;;;;;;5080513;28;20463;-74